sensor_id;sensor_type;location;lat;lon;timestamp;pressure;altitude;pressure_sealevel;temperature;humidity
46876;BME280;32866;50.160;14.768;2023-04-27T00:01:35;99653.72;;;4.61;100.00
46876;BME280;32866;50.160;14.768;2023-04-27T00:04:01;99647.13;;;4.55;100.00
46876;BME280;32866;50.160;14.768;2023-04-27T00:06:28;99657.59;;;4.45;100.00
46876;BME280;32866;50.160;14.768;2023-04-27T00:08:53;99617.31;;;4.12;100.00
46876;BME280;32866;50.160;14.768;2023-04-27T00:11:19;99629.34;;;4.25;100.00
46876;BME280;32866;50.160;14.768;2023-04-27T00:13:45;99615.38;;;4.12;100.00
46876;BME280;32866;50.160;14.768;2023-04-27T00:16:10;99652.16;;;4.60;100.00
46876;BME280;32866;50.160;14.768;2023-04-27T00:18:36;99602.94;;;4.54;100.00
46876;BME280;32866;50.160;14.768;2023-04-27T00:21:02;99652.88;;;4.82;100.00
46876;BME280;32866;50.160;14.768;2023-04-27T00:23:27;99615.00;;;4.32;100.00
46876;BME280;32866;50.160;14.768;2023-04-27T00:25:52;99612.66;;;4.37;100.00
46876;BME280;32866;50.160;14.768;2023-04-27T00:28:18;99644.44;;;4.55;100.00
46876;BME280;32866;50.160;14.768;2023-04-27T00:30:43;99649.03;;;4.72;100.00
46876;BME280;32866;50.160;14.768;2023-04-27T00:33:09;99645.19;;;4.66;100.00
46876;BME280;32866;50.160;14.768;2023-04-27T00:35:34;99606.44;;;4.40;100.00
46876;BME280;32866;50.160;14.768;2023-04-27T00:38:00;99605.25;;;4.49;100.00
46876;BME280;32866;50.160;14.768;2023-04-27T00:40:25;99646.69;;;4.81;100.00
46876;BME280;32866;50.160;14.768;2023-04-27T00:42:50;99608.75;;;4.60;100.00
46876;BME280;32866;50.160;14.768;2023-04-27T00:45:16;99652.91;;;4.78;100.00
46876;BME280;32866;50.160;14.768;2023-04-27T00:47:42;99652.13;;;4.85;100.00
46876;BME280;32866;50.160;14.768;2023-04-27T00:50:08;99634.69;;;4.75;100.00
46876;BME280;32866;50.160;14.768;2023-04-27T00:52:35;99645.19;;;4.66;100.00
46876;BME280;32866;50.160;14.768;2023-04-27T00:55:02;99640.16;;;4.54;100.00
46876;BME280;32866;50.160;14.768;2023-04-27T00:57:32;99645.97;;;4.45;100.00
46876;BME280;32866;50.160;14.768;2023-04-27T01:00:00;99648.69;;;4.45;100.00
46876;BME280;32866;50.160;14.768;2023-04-27T01:02:26;99608.00;;;4.38;100.00
46876;BME280;32866;50.160;14.768;2023-04-27T01:04:52;99642.50;;;4.48;100.00
46876;BME280;32866;50.160;14.768;2023-04-27T01:07:18;99645.22;;;4.37;100.00
46876;BME280;32866;50.160;14.768;2023-04-27T01:09:43;99596.41;;;4.08;100.00
46876;BME280;32866;50.160;14.768;2023-04-27T01:12:08;99641.34;;;4.38;100.00
46876;BME280;32866;50.160;14.768;2023-04-27T01:14:35;99641.34;;;4.35;100.00
46876;BME280;32866;50.160;14.768;2023-04-27T01:17:00;99646.41;;;4.29;100.00
46876;BME280;32866;50.160;14.768;2023-04-27T01:19:26;99659.19;;;4.25;100.00
46876;BME280;32866;50.160;14.768;2023-04-27T01:21:51;99623.16;;;4.03;100.00
46876;BME280;32866;50.160;14.768;2023-04-27T01:24:17;99623.91;;;4.03;100.00
46876;BME280;32866;50.160;14.768;2023-04-27T01:26:42;99611.13;;;3.93;100.00
46876;BME280;32866;50.160;14.768;2023-04-27T01:29:07;99634.38;;;4.01;100.00
46876;BME280;32866;50.160;14.768;2023-04-27T01:31:33;99633.97;;;4.35;100.00
46876;BME280;32866;50.160;14.768;2023-04-27T01:33:58;99635.13;;;4.49;100.00
46876;BME280;32866;50.160;14.768;2023-04-27T01:36:23;99640.16;;;4.54;100.00
46876;BME280;32866;50.160;14.768;2023-04-27T01:38:49;99663.44;;;4.55;100.00
46876;BME280;32866;50.160;14.768;2023-04-27T01:41:15;99655.69;;;4.42;100.00
46876;BME280;32866;50.160;14.768;2023-04-27T01:43:40;99634.78;;;4.18;100.00
46876;BME280;32866;50.160;14.768;2023-04-27T01:46:09;99656.88;;;4.34;100.00
46876;BME280;32866;50.160;14.768;2023-04-27T01:48:36;99664.59;;;4.25;100.00
46876;BME280;32866;50.160;14.768;2023-04-27T01:51:01;99643.69;;;4.18;100.00
46876;BME280;32866;50.160;14.768;2023-04-27T01:53:27;99664.59;;;4.25;100.00
46876;BME280;32866;50.160;14.768;2023-04-27T01:55:53;99657.63;;;4.27;100.00
46876;BME280;32866;50.160;14.768;2023-04-27T01:58:18;99630.88;;;4.12;100.00
46876;BME280;32866;50.160;14.768;2023-04-27T02:00:44;99656.09;;;4.41;100.00
46876;BME280;32866;50.160;14.768;2023-04-27T02:03:09;99657.63;;;4.24;100.00
46876;BME280;32866;50.160;14.768;2023-04-27T02:05:35;99669.25;;;4.50;100.00
46876;BME280;32866;50.160;14.768;2023-04-27T02:08:00;99643.69;;;4.33;100.00
46876;BME280;32866;50.160;14.768;2023-04-27T02:10:26;99662.25;;;4.56;100.00
46876;BME280;32866;50.160;14.768;2023-04-27T02:12:51;99648.31;;;4.39;100.00
46876;BME280;32866;50.160;14.768;2023-04-27T02:15:16;99663.03;;;4.53;100.00
46876;BME280;32866;50.160;14.768;2023-04-27T02:17:42;99671.19;;;4.53;100.00
46876;BME280;32866;50.160;14.768;2023-04-27T02:20:08;99673.13;;;4.49;100.00
46876;BME280;32866;50.160;14.768;2023-04-27T02:22:35;99681.66;;;4.29;100.00
46876;BME280;32866;50.160;14.768;2023-04-27T02:25:01;99684.75;;;4.17;100.00
46876;BME280;32866;50.160;14.768;2023-04-27T02:27:26;99682.44;;;4.04;100.00
46876;BME280;32866;50.160;14.768;2023-04-27T02:29:52;99636.69;;;3.78;100.00
46876;BME280;32866;50.160;14.768;2023-04-27T02:32:17;99666.94;;;3.90;100.00
46876;BME280;32866;50.160;14.768;2023-04-27T02:34:43;99679.34;;;4.35;100.00
46876;BME280;32866;50.160;14.768;2023-04-27T02:37:08;99667.69;;;4.27;100.00
46876;BME280;32866;50.160;14.768;2023-04-27T02:39:34;99652.19;;;4.13;100.00
46876;BME280;32866;50.160;14.768;2023-04-27T02:41:59;99675.44;;;4.03;100.00
46876;BME280;32866;50.160;14.768;2023-04-27T02:44:25;99687.09;;;4.04;100.00
46876;BME280;32866;50.160;14.768;2023-04-27T02:46:51;99641.31;;;3.66;100.00
46876;BME280;32866;50.160;14.768;2023-04-27T02:49:16;99651.38;;;3.69;100.00
46876;BME280;32866;50.160;14.768;2023-04-27T02:51:41;99642.09;;;3.70;100.00
46876;BME280;32866;50.160;14.768;2023-04-27T02:54:08;99680.88;;;3.89;100.00
46876;BME280;32866;50.160;14.768;2023-04-27T02:56:33;99686.66;;;4.02;100.00
46876;BME280;32866;50.160;14.768;2023-04-27T02:58:58;99691.72;;;4.00;100.00
46876;BME280;32866;50.160;14.768;2023-04-27T03:01:23;99683.97;;;3.84;100.00
46876;BME280;32866;50.160;14.768;2023-04-27T03:03:49;99659.91;;;3.79;100.00
46876;BME280;32866;50.160;14.768;2023-04-27T03:06:14;99686.28;;;3.93;100.00
46876;BME280;32866;50.160;14.768;2023-04-27T03:08:40;99666.88;;;3.72;100.00
46876;BME280;32866;50.160;14.768;2023-04-27T03:11:06;99656.03;;;3.65;100.00
46876;BME280;32866;50.160;14.768;2023-04-27T03:13:33;99673.06;;;3.62;100.00
46876;BME280;32866;50.160;14.768;2023-04-27T03:16:06;99694.00;;;3.76;100.00
46876;BME280;32866;50.160;14.768;2023-04-27T03:18:32;99668.41;;;3.70;100.00
46876;BME280;32866;50.160;14.768;2023-04-27T03:21:08;99669.19;;;3.63;100.00
46876;BME280;32866;50.160;14.768;2023-04-27T03:23:34;99695.56;;;3.81;100.00
46876;BME280;32866;50.160;14.768;2023-04-27T03:26:00;99686.63;;;3.69;100.00
46876;BME280;32866;50.160;14.768;2023-04-27T03:28:25;99699.44;;;3.83;100.00
46876;BME280;32866;50.160;14.768;2023-04-27T03:30:51;99678.88;;;3.64;100.00
46876;BME280;32866;50.160;14.768;2023-04-27T03:33:16;99696.28;;;3.60;100.00
46876;BME280;32866;50.160;14.768;2023-04-27T03:35:42;99705.59;;;3.77;100.00
46876;BME280;32866;50.160;14.768;2023-04-27T03:38:08;99691.22;;;3.51;100.00
46876;BME280;32866;50.160;14.768;2023-04-27T03:40:33;99700.94;;;3.59;100.00
46876;BME280;32866;50.160;14.768;2023-04-27T03:42:58;99705.59;;;3.62;100.00
46876;BME280;32866;50.160;14.768;2023-04-27T03:45:24;99693.16;;;3.54;100.00
46876;BME280;32866;50.160;14.768;2023-04-27T03:47:49;99709.44;;;3.61;100.00
46876;BME280;32866;50.160;14.768;2023-04-27T03:50:15;99702.88;;;3.62;100.00
46876;BME280;32866;50.160;14.768;2023-04-27T03:52:40;99695.13;;;3.57;100.00
46876;BME280;32866;50.160;14.768;2023-04-27T03:55:06;99718.38;;;3.65;100.00
46876;BME280;32866;50.160;14.768;2023-04-27T03:57:32;99707.13;;;3.60;100.00
46876;BME280;32866;50.160;14.768;2023-04-27T03:59:57;99711.00;;;3.66;100.00
46876;BME280;32866;50.160;14.768;2023-04-27T04:02:22;99686.56;;;3.51;100.00
46876;BME280;32866;50.160;14.768;2023-04-27T04:04:48;99711.41;;;3.79;100.00
46876;BME280;32866;50.160;14.768;2023-04-27T04:07:13;99707.59;;;3.98;100.00
46876;BME280;32866;50.160;14.768;2023-04-27T04:09:39;99738.25;;;4.16;100.00
46876;BME280;32866;50.160;14.768;2023-04-27T04:12:05;99725.06;;;4.15;100.00
46876;BME280;32866;50.160;14.768;2023-04-27T04:14:30;99701.38;;;3.86;100.00
46876;BME280;32866;50.160;14.768;2023-04-27T04:16:56;99723.50;;;3.96;100.00
46876;BME280;32866;50.160;14.768;2023-04-27T04:19:21;99711.84;;;3.88;100.00
46876;BME280;32866;50.160;14.768;2023-04-27T04:21:48;99733.19;;;4.15;100.00
46876;BME280;32866;50.160;14.768;2023-04-27T04:24:13;99711.09;;;4.09;100.00
46876;BME280;32866;50.160;14.768;2023-04-27T04:26:40;99724.25;;;3.89;100.00
46876;BME280;32866;50.160;14.768;2023-04-27T04:29:05;99718.84;;;3.96;100.00
46876;BME280;32866;50.160;14.768;2023-04-27T04:31:31;99725.06;;;4.22;100.00
46876;BME280;32866;50.160;14.768;2023-04-27T04:33:59;99730.47;;;4.18;100.00
46876;BME280;32866;50.160;14.768;2023-04-27T04:36:25;99730.88;;;4.31;100.00
46876;BME280;32866;50.160;14.768;2023-04-27T04:38:51;99750.66;;;4.35;100.00
46876;BME280;32866;50.160;14.768;2023-04-27T04:41:18;99720.44;;;4.22;100.00
46876;BME280;32866;50.160;14.768;2023-04-27T04:43:43;99742.13;;;4.33;100.00
46876;BME280;32866;50.160;14.768;2023-04-27T04:46:08;99758.41;;;4.44;100.00
46876;BME280;32866;50.160;14.768;2023-04-27T04:48:34;99740.22;;;4.41;100.00
46876;BME280;32866;50.160;14.768;2023-04-27T04:50:59;99754.16;;;4.72;100.00
46876;BME280;32866;50.160;14.768;2023-04-27T04:53:25;99759.59;;;4.68;100.00
46876;BME280;32866;50.160;14.768;2023-04-27T04:55:51;99743.25;;;4.82;100.00
46876;BME280;32866;50.160;14.768;2023-04-27T04:58:16;99764.59;;;4.98;100.00
46876;BME280;32866;50.160;14.768;2023-04-27T05:00:41;99756.84;;;4.93;100.00
46876;BME280;32866;50.160;14.768;2023-04-27T05:03:07;99766.16;;;4.92;100.00
46876;BME280;32866;50.160;14.768;2023-04-27T05:05:32;99751.78;;;4.99;100.00
46876;BME280;32866;50.160;14.768;2023-04-27T05:07:58;99783.22;;;5.00;100.00
46876;BME280;32866;50.160;14.768;2023-04-27T05:10:23;99763.84;;;4.98;100.00
46876;BME280;32866;50.160;14.768;2023-04-27T05:12:49;99757.63;;;5.05;100.00
46876;BME280;32866;50.160;14.768;2023-04-27T05:15:14;99792.47;;;5.35;100.00
46876;BME280;32866;50.160;14.768;2023-04-27T05:17:41;99719.56;;;5.01;100.00
46876;BME280;32866;50.160;14.768;2023-04-27T05:20:08;99721.16;;;4.95;100.00
46876;BME280;32866;50.160;14.768;2023-04-27T05:22:34;99764.13;;;5.43;100.00
46876;BME280;32866;50.160;14.768;2023-04-27T05:24:59;99769.88;;;5.52;100.00
46876;BME280;32866;50.160;14.768;2023-04-27T05:27:24;99796.94;;;5.85;100.00
46876;BME280;32866;50.160;14.768;2023-04-27T05:29:50;99771.31;;;5.82;100.00
46876;BME280;32866;50.160;14.768;2023-04-27T05:32:15;99779.03;;;5.98;100.00
46876;BME280;32866;50.160;14.768;2023-04-27T05:34:41;99789.84;;;6.12;100.00
46876;BME280;32866;50.160;14.768;2023-04-27T05:37:08;99779.69;;;6.24;100.00
46876;BME280;32866;50.160;14.768;2023-04-27T05:39:34;99789.63;;;6.45;100.00
46876;BME280;32866;50.160;14.768;2023-04-27T05:41:59;99755.97;;;6.24;100.00
46876;BME280;32866;50.160;14.768;2023-04-27T05:44:26;99779.34;;;6.71;100.00
46876;BME280;32866;50.160;14.768;2023-04-27T05:46:53;99768.66;;;6.45;100.00
46876;BME280;32866;50.160;14.768;2023-04-27T05:49:20;99788.59;;;7.22;100.00
46876;BME280;32866;50.160;14.768;2023-04-27T05:51:45;99762.31;;;7.04;100.00
46876;BME280;32866;50.160;14.768;2023-04-27T05:54:11;99752.00;;;7.23;100.00
46876;BME280;32866;50.160;14.768;2023-04-27T05:56:36;99773.44;;;7.21;100.00
46876;BME280;32866;50.160;14.768;2023-04-27T05:59:02;99769.81;;;6.93;100.00
46876;BME280;32866;50.160;14.768;2023-04-27T06:01:27;99781.66;;;7.52;100.00
46876;BME280;32866;50.160;14.768;2023-04-27T06:03:53;99786.97;;;7.66;100.00
46876;BME280;32866;50.160;14.768;2023-04-27T06:06:18;99777.91;;;8.31;100.00
46876;BME280;32866;50.160;14.768;2023-04-27T06:08:43;99770.03;;;8.36;100.00
46876;BME280;32866;50.160;14.768;2023-04-27T06:11:09;99789.97;;;8.33;100.00
46876;BME280;32866;50.160;14.768;2023-04-27T06:13:34;99797.53;;;8.49;100.00
46876;BME280;32866;50.160;14.768;2023-04-27T06:16:00;99793.59;;;8.78;100.00
46876;BME280;32866;50.160;14.768;2023-04-27T06:18:25;99766.41;;;9.14;100.00
46876;BME280;32866;50.160;14.768;2023-04-27T06:20:51;99783.97;;;9.57;100.00
46876;BME280;32866;50.160;14.768;2023-04-27T06:23:16;99764.13;;;9.33;100.00
46876;BME280;32866;50.160;14.768;2023-04-27T06:25:43;99804.94;;;9.23;100.00
46876;BME280;32866;50.160;14.768;2023-04-27T06:28:08;99799.19;;;9.38;100.00
46876;BME280;32866;50.160;14.768;2023-04-27T06:30:33;99775.56;;;9.68;100.00
46876;BME280;32866;50.160;14.768;2023-04-27T06:32:59;99764.50;;;9.91;100.00
46876;BME280;32866;50.160;14.768;2023-04-27T06:35:24;99780.69;;;9.65;100.00
46876;BME280;32866;50.160;14.768;2023-04-27T06:37:49;99774.66;;;10.27;96.73
46876;BME280;32866;50.160;14.768;2023-04-27T06:40:15;99769.53;;;10.13;90.80
46876;BME280;32866;50.160;14.768;2023-04-27T06:42:41;99754.19;;;10.98;89.70
46876;BME280;32866;50.160;14.768;2023-04-27T06:45:06;99761.81;;;11.06;82.44
46876;BME280;32866;50.160;14.768;2023-04-27T06:47:32;99772.56;;;10.84;82.46
46876;BME280;32866;50.160;14.768;2023-04-27T06:49:57;99798.22;;;11.23;87.28
46876;BME280;32866;50.160;14.768;2023-04-27T06:52:23;99767.47;;;10.99;86.02
46876;BME280;32866;50.160;14.768;2023-04-27T06:54:48;99773.50;;;11.95;78.26
46876;BME280;32866;50.160;14.768;2023-04-27T06:57:14;99778.56;;;12.09;70.63
46876;BME280;32866;50.160;14.768;2023-04-27T06:59:39;99797.66;;;12.77;70.83
46876;BME280;32866;50.160;14.768;2023-04-27T07:02:04;99779.94;;;13.13;70.25
46876;BME280;32866;50.160;14.768;2023-04-27T07:04:30;99796.72;;;13.41;70.33
46876;BME280;32866;50.160;14.768;2023-04-27T07:06:55;99778.16;;;14.48;63.52
46876;BME280;32866;50.160;14.768;2023-04-27T07:09:21;99793.44;;;14.99;57.14
46876;BME280;32866;50.160;14.768;2023-04-27T07:11:46;99794.50;;;14.02;58.50
46876;BME280;32866;50.160;14.768;2023-04-27T07:14:12;99798.50;;;14.51;62.21
46876;BME280;32866;50.160;14.768;2023-04-27T07:16:37;99796.19;;;15.45;54.20
46876;BME280;32866;50.160;14.768;2023-04-27T07:19:03;99796.13;;;16.01;53.09
46876;BME280;32866;50.160;14.768;2023-04-27T07:21:28;99786.84;;;15.43;55.67
46876;BME280;32866;50.160;14.768;2023-04-27T07:23:53;99786.78;;;15.89;51.09
46876;BME280;32866;50.160;14.768;2023-04-27T07:26:19;99771.03;;;14.88;52.91
46876;BME280;32866;50.160;14.768;2023-04-27T07:28:45;99789.59;;;14.37;52.33
46876;BME280;32866;50.160;14.768;2023-04-27T07:31:20;99794.47;;;13.70;55.51
46876;BME280;32866;50.160;14.768;2023-04-27T07:33:46;99804.69;;;13.92;51.09
46876;BME280;32866;50.160;14.768;2023-04-27T07:36:11;99797.59;;;13.03;56.12
46876;BME280;32866;50.160;14.768;2023-04-27T07:38:37;99791.19;;;12.71;55.10
46876;BME280;32866;50.160;14.768;2023-04-27T07:41:02;99798.19;;;14.08;54.30
46876;BME280;32866;50.160;14.768;2023-04-27T07:43:29;99800.00;;;14.33;52.08
46876;BME280;32866;50.160;14.768;2023-04-27T07:45:56;99784.97;;;14.34;49.39
46876;BME280;32866;50.160;14.768;2023-04-27T07:48:22;99772.91;;;15.00;47.72
46876;BME280;32866;50.160;14.768;2023-04-27T07:50:48;99777.53;;;14.13;43.71
46876;BME280;32866;50.160;14.768;2023-04-27T07:53:13;99792.97;;;12.26;44.98
46876;BME280;32866;50.160;14.768;2023-04-27T07:55:38;99793.63;;;14.14;46.89
46876;BME280;32866;50.160;14.768;2023-04-27T07:58:05;99795.59;;;14.04;45.27
46876;BME280;32866;50.160;14.768;2023-04-27T08:00:31;99774.66;;;14.16;45.47
46876;BME280;32866;50.160;14.768;2023-04-27T08:02:56;99775.94;;;15.39;41.73
46876;BME280;32866;50.160;14.768;2023-04-27T08:05:21;99766.84;;;16.27;42.29
46876;BME280;32866;50.160;14.768;2023-04-27T08:07:47;99796.06;;;16.19;41.00
46876;BME280;32866;50.160;14.768;2023-04-27T08:10:13;99781.88;;;16.84;38.84
46876;BME280;32866;50.160;14.768;2023-04-27T08:12:39;99776.50;;;15.80;36.87
46876;BME280;32866;50.160;14.768;2023-04-27T08:15:04;99802.59;;;15.70;38.80
46876;BME280;32866;50.160;14.768;2023-04-27T08:17:31;99780.53;;;15.79;41.45
46876;BME280;32866;50.160;14.768;2023-04-27T08:19:56;99788.72;;;16.40;40.29
46876;BME280;32866;50.160;14.768;2023-04-27T08:22:22;99801.31;;;17.92;37.42
46876;BME280;32866;50.160;14.768;2023-04-27T08:24:47;99797.38;;;18.13;36.49
46876;BME280;32866;50.160;14.768;2023-04-27T08:27:12;99798.91;;;18.85;33.92
46876;BME280;32866;50.160;14.768;2023-04-27T08:29:38;99787.13;;;18.55;35.77
46876;BME280;32866;50.160;14.768;2023-04-27T08:32:03;99803.41;;;17.97;36.68
46876;BME280;32866;50.160;14.768;2023-04-27T08:34:29;99788.09;;;17.03;35.92
46876;BME280;32866;50.160;14.768;2023-04-27T08:36:55;99776.09;;;16.15;40.40
46876;BME280;32866;50.160;14.768;2023-04-27T08:39:21;99810.41;;;17.38;35.55
46876;BME280;32866;50.160;14.768;2023-04-27T08:41:46;99801.50;;;17.34;35.11
46876;BME280;32866;50.160;14.768;2023-04-27T08:44:11;99793.25;;;16.28;36.75
46876;BME280;32866;50.160;14.768;2023-04-27T08:46:37;99783.53;;;16.00;35.53
46876;BME280;32866;50.160;14.768;2023-04-27T08:49:03;99799.56;;;15.77;36.65
46876;BME280;32866;50.160;14.768;2023-04-27T08:51:28;99802.91;;;15.81;37.39
46876;BME280;32866;50.160;14.768;2023-04-27T08:53:56;99806.78;;;16.60;36.59
46876;BME280;32866;50.160;14.768;2023-04-27T08:56:24;99796.66;;;16.81;37.21
46876;BME280;32866;50.160;14.768;2023-04-27T08:58:50;99804.50;;;15.45;36.88
46876;BME280;32866;50.160;14.768;2023-04-27T09:01:16;99805.41;;;15.14;36.59
46876;BME280;32866;50.160;14.768;2023-04-27T09:03:42;99807.69;;;14.07;39.14
46876;BME280;32866;50.160;14.768;2023-04-27T09:06:10;99784.56;;;14.45;37.00
46876;BME280;32866;50.160;14.768;2023-04-27T09:08:43;99790.22;;;15.28;40.55
46876;BME280;32866;50.160;14.768;2023-04-27T09:11:09;99794.16;;;16.92;36.14
46876;BME280;32866;50.160;14.768;2023-04-27T09:13:38;99791.03;;;18.13;34.95
46876;BME280;32866;50.160;14.768;2023-04-27T09:16:04;99795.19;;;18.38;35.18
46876;BME280;32866;50.160;14.768;2023-04-27T09:18:30;99780.97;;;19.07;34.48
46876;BME280;32866;50.160;14.768;2023-04-27T09:20:59;99766.00;;;18.07;34.42
46876;BME280;32866;50.160;14.768;2023-04-27T09:23:28;99804.16;;;18.48;33.11
46876;BME280;32866;50.160;14.768;2023-04-27T09:26:04;99792.00;;;17.50;31.96
46876;BME280;32866;50.160;14.768;2023-04-27T09:28:33;99792.38;;;16.80;34.13
46876;BME280;32866;50.160;14.768;2023-04-27T09:31:00;99793.69;;;18.37;37.31
46876;BME280;32866;50.160;14.768;2023-04-27T09:33:33;99790.50;;;18.44;32.89
46876;BME280;32866;50.160;14.768;2023-04-27T09:36:00;99798.81;;;18.09;33.99
46876;BME280;32866;50.160;14.768;2023-04-27T09:38:26;99796.78;;;18.24;34.47
46876;BME280;32866;50.160;14.768;2023-04-27T09:40:52;99795.81;;;18.27;33.58
46876;BME280;32866;50.160;14.768;2023-04-27T09:43:17;99760.81;;;17.25;34.53
46876;BME280;32866;50.160;14.768;2023-04-27T09:45:42;99791.34;;;17.70;33.42
46876;BME280;32866;50.160;14.768;2023-04-27T09:48:09;99787.47;;;18.63;35.22
46876;BME280;32866;50.160;14.768;2023-04-27T09:50:35;99776.09;;;18.81;34.11
46876;BME280;32866;50.160;14.768;2023-04-27T09:53:03;99787.78;;;19.26;33.08
46876;BME280;32866;50.160;14.768;2023-04-27T09:55:34;99786.63;;;18.92;29.88
46876;BME280;32866;50.160;14.768;2023-04-27T10:01:20;99785.81;;;19.33;34.10
46876;BME280;32866;50.160;14.768;2023-04-27T10:04:10;99784.84;;;19.62;32.07
46876;BME280;32866;50.160;14.768;2023-04-27T10:07:11;99784.66;;;20.67;30.37
46876;BME280;32866;50.160;14.768;2023-04-27T10:09:45;99785.69;;;20.37;31.15
46876;BME280;32866;50.160;14.768;2023-04-27T10:12:16;99778.97;;;21.04;28.84
46876;BME280;32866;50.160;14.768;2023-04-27T10:14:53;99774.25;;;21.44;29.75
46876;BME280;32866;50.160;14.768;2023-04-27T10:19:56;99746.31;;;20.45;30.33
46876;BME280;32866;50.160;14.768;2023-04-27T10:22:22;99763.50;;;20.43;30.95
46876;BME280;32866;50.160;14.768;2023-04-27T10:24:49;99769.88;;;20.55;31.90
46876;BME280;32866;50.160;14.768;2023-04-27T10:27:17;99780.16;;;21.75;30.01
46876;BME280;32866;50.160;14.768;2023-04-27T10:29:48;99765.47;;;20.80;30.17
46876;BME280;32866;50.160;14.768;2023-04-27T10:32:23;99773.44;;;19.07;32.75
46876;BME280;32866;50.160;14.768;2023-04-27T10:34:50;99761.84;;;19.61;31.52
46876;BME280;32866;50.160;14.768;2023-04-27T10:37:17;99756.78;;;19.34;31.49
46876;BME280;32866;50.160;14.768;2023-04-27T10:39:45;99747.28;;;20.42;30.00
46876;BME280;32866;50.160;14.768;2023-04-27T10:42:11;99753.00;;;22.37;28.84
46876;BME280;32866;50.160;14.768;2023-04-27T10:44:37;99745.91;;;22.31;26.89
46876;BME280;32866;50.160;14.768;2023-04-27T10:47:16;99753.78;;;22.96;27.47
46876;BME280;32866;50.160;14.768;2023-04-27T10:49:46;99756.81;;;21.95;28.73
46876;BME280;32866;50.160;14.768;2023-04-27T10:52:11;99731.25;;;23.30;28.59
46876;BME280;32866;50.160;14.768;2023-04-27T10:54:37;99753.28;;;21.66;27.96
46876;BME280;32866;50.160;14.768;2023-04-27T10:57:08;99758.34;;;21.84;28.81
46876;BME280;32866;50.160;14.768;2023-04-27T10:59:35;99758.06;;;22.22;27.97
46876;BME280;32866;50.160;14.768;2023-04-27T11:02:11;99749.00;;;20.77;29.61
46876;BME280;32866;50.160;14.768;2023-04-27T11:04:39;99713.94;;;18.32;31.08
46876;BME280;32866;50.160;14.768;2023-04-27T11:07:09;99762.56;;;17.23;32.36
46876;BME280;32866;50.160;14.768;2023-04-27T11:09:35;99753.94;;;15.91;34.39
46876;BME280;32866;50.160;14.768;2023-04-27T11:12:10;99754.94;;;18.63;30.61
46876;BME280;32866;50.160;14.768;2023-04-27T11:14:36;99745.38;;;17.34;32.93
46876;BME280;32866;50.160;14.768;2023-04-27T11:17:02;99751.28;;;17.71;33.95
46876;BME280;32866;50.160;14.768;2023-04-27T11:19:28;99700.75;;;19.99;29.52
46876;BME280;32866;50.160;14.768;2023-04-27T11:22:02;99718.97;;;20.49;26.30
46876;BME280;32866;50.160;14.768;2023-04-27T11:24:27;99735.59;;;20.86;26.12
46876;BME280;32866;50.160;14.768;2023-04-27T11:26:53;99743.22;;;19.68;26.57
46876;BME280;32866;50.160;14.768;2023-04-27T11:29:18;99735.22;;;17.31;31.36
46876;BME280;32866;50.160;14.768;2023-04-27T11:31:45;99753.59;;;17.58;31.34
46876;BME280;32866;50.160;14.768;2023-04-27T11:34:16;99744.19;;;19.64;30.74
46876;BME280;32866;50.160;14.768;2023-04-27T11:36:42;99716.06;;;17.87;32.12
46876;BME280;32866;50.160;14.768;2023-04-27T11:39:07;99757.41;;;18.05;32.52
46876;BME280;32866;50.160;14.768;2023-04-27T11:41:36;99766.38;;;17.40;33.18
46876;BME280;32866;50.160;14.768;2023-04-27T11:44:05;99756.53;;;16.28;32.48
46876;BME280;32866;50.160;14.768;2023-04-27T11:46:32;99737.50;;;17.17;34.02
46876;BME280;32866;50.160;14.768;2023-04-27T11:49:01;99758.56;;;16.76;34.98
46876;BME280;32866;50.160;14.768;2023-04-27T11:51:28;99748.25;;;17.00;33.44
46876;BME280;32866;50.160;14.768;2023-04-27T11:53:54;99748.66;;;19.56;31.03
46876;BME280;32866;50.160;14.768;2023-04-27T11:56:19;99750.72;;;19.09;30.94
46876;BME280;32866;50.160;14.768;2023-04-27T11:58:44;99753.69;;;20.53;30.61
46876;BME280;32866;50.160;14.768;2023-04-27T12:01:11;99725.38;;;21.89;27.31
46876;BME280;32866;50.160;14.768;2023-04-27T12:03:37;99747.56;;;20.98;26.15
46876;BME280;32866;50.160;14.768;2023-04-27T12:06:02;99744.66;;;21.98;30.73
46876;BME280;32866;50.160;14.768;2023-04-27T12:08:27;99737.00;;;22.15;27.48
46876;BME280;32866;50.160;14.768;2023-04-27T12:10:53;99746.13;;;22.21;27.52
46876;BME280;32866;50.160;14.768;2023-04-27T12:13:20;99750.91;;;21.19;28.94
46876;BME280;32866;50.160;14.768;2023-04-27T12:15:45;99744.03;;;20.54;29.45
46876;BME280;32866;50.160;14.768;2023-04-27T12:18:11;99743.09;;;21.40;27.82
46876;BME280;32866;50.160;14.768;2023-04-27T12:20:36;99733.22;;;20.62;31.78
46876;BME280;32866;50.160;14.768;2023-04-27T12:23:01;99745.44;;;20.70;29.06
46876;BME280;32866;50.160;14.768;2023-04-27T12:25:27;99744.66;;;19.31;29.21
46876;BME280;32866;50.160;14.768;2023-04-27T12:27:53;99735.75;;;19.01;31.64
46876;BME280;32866;50.160;14.768;2023-04-27T12:30:19;99754.56;;;17.55;30.75
46876;BME280;32866;50.160;14.768;2023-04-27T12:32:45;99747.78;;;17.02;32.90
46876;BME280;32866;50.160;14.768;2023-04-27T12:35:11;99747.97;;;16.98;33.46
46876;BME280;32866;50.160;14.768;2023-04-27T12:37:37;99718.88;;;16.30;33.73
46876;BME280;32866;50.160;14.768;2023-04-27T12:40:02;99747.75;;;17.71;32.08
46876;BME280;32866;50.160;14.768;2023-04-27T12:42:31;99723.72;;;18.68;31.68
46876;BME280;32866;50.160;14.768;2023-04-27T12:44:57;99735.53;;;20.64;32.86
46876;BME280;32866;50.160;14.768;2023-04-27T12:47:22;99736.41;;;20.00;30.80
46876;BME280;32866;50.160;14.768;2023-04-27T12:49:48;99718.94;;;19.36;28.98
46876;BME280;32866;50.160;14.768;2023-04-27T12:52:15;99747.53;;;17.15;32.72